CheckWX is a tool to help pilots better visualize weather data.  It is not intended as a substitute for an official pre-flight weather briefing.

22:47:16 UTC

FVFA METAR
Victoria Falls International Airport
Victoria Falls, Zimbabwe
Current

14 hours ago

FVFA 150900Z 07010KT 030V110 CAVOK 20/05 Q1025 NOSIG
Observed
Jul-15 @ 09:00 UTC
Wind
  • 070° at 10 KTS
Visibility
10,000+ meters
Flight Rules
VFR
Cloud Levels
  • Clear skies
Temperature
20°C / 68°F
Dewpoint
C / 41°F
Humidity
38%
Altimeter
30.27" Hg
Pressure
1024.92 hPa